Time;durP1;ratioP1;P1;durP2;ratioP2;P2;SDS_P1;SDS_P2;PMS_P1;PMS_P2;Temp;Humidity;BMP_temperature;BMP_pressure;BME280_temperature;BME280_humidity;BME280_pressure;Samples;Min_cycle;Max_cycle;Signal;HPM_P1;HPM_P2
2022/02/09 00:00:08;;;;;;;12.88;5.45;;;10.80;99.90;;;11.13;88.38;102489.03;5115754;28;20040;-60
2022/02/09 00:02:48;;;;;;;10.07;4.60;;;10.80;99.90;;;11.16;87.93;102465.28;5115878;28;20058;-60
2022/02/09 00:05:28;;;;;;;11.02;4.57;;;10.90;99.90;;;11.18;88.09;102479.44;5116004;28;20115;-60
2022/02/09 00:08:02;;;;;;;14.33;4.77;;;10.90;99.90;;;11.10;88.00;102482.81;5115907;28;20036;-60
2022/02/09 00:10:33;;;;;;;16.45;5.90;;;10.90;99.90;;;11.11;88.23;102476.66;5115655;28;20048;-60
2022/02/09 00:16:01;;;;;;;11.40;5.15;;;10.90;99.90;;;11.03;88.27;102473.88;5090522;28;20062;-61
2022/02/09 00:18:37;;;;;;;8.32;5.38;;;10.80;99.90;;;11.10;88.48;102464.25;5115509;28;20039;-61
2022/02/09 00:30:19;;;;;;;12.90;6.03;;;10.80;99.90;;;10.96;88.69;102453.41;4954195;29;20066;-61
2022/02/09 00:44:20;;;;;;;8.30;5.55;;;10.80;99.90;;;11.10;88.50;102451.03;5098117;28;20063;-61
2022/02/09 01:39:50;;;;;;;13.65;7.22;;;10.70;99.90;;;10.91;91.59;102433.91;5114243;28;20047;-61
2022/02/09 01:51:17;;;;;;;13.60;7.78;;;10.80;99.90;;;11.08;91.69;102450.09;5114078;28;20048;-61
2022/02/09 01:56:35;;;;;;;14.68;8.63;;;10.80;99.90;;;11.07;91.99;102432.44;5113759;28;20436;-61
2022/02/09 01:59:05;;;;;;;11.47;7.73;;;10.80;99.90;;;11.05;91.83;102432.44;5095440;28;20055;-61
2022/02/09 02:01:34;;;;;;;11.38;7.30;;;10.80;99.90;;;10.90;91.97;102416.22;5113478;28;20100;-61
2022/02/09 02:04:03;;;;;;;14.95;7.72;;;10.80;99.90;;;11.11;92.11;102423.69;5113424;28;20043;-60
2022/02/09 02:06:33;;;;;;;11.25;7.25;;;10.80;99.90;;;11.03;92.03;102431.50;5113356;28;20503;-61
2022/02/09 02:09:02;;;;;;;;;;;10.80;99.90;;;11.15;91.80;102446.72;5114047;28;20416;-61
2022/02/09 02:11:35;;;;;;;13.77;7.43;;;10.80;99.90;;;11.18;91.70;102429.13;5113539;28;19957;-60
2022/02/09 02:14:18;;;;;;;13.95;8.93;;;10.90;99.90;;;11.04;91.88;102424.44;5113302;28;20489;-61
2022/02/09 02:16:51;;;;;;;12.05;8.65;;;10.80;99.90;;;11.13;91.87;102428.13;5113314;28;20040;-60
2022/02/09 02:19:31;;;;;;;11.60;7.95;;;10.90;99.90;;;11.12;92.12;102418.41;5113414;28;20142;-61
2022/02/09 02:22:12;;;;;;;12.68;8.70;;;10.80;99.90;;;11.09;92.20;102420.13;5113292;28;20052;-61
2022/02/09 02:25:04;;;;;;;12.80;9.05;;;10.80;99.90;;;11.15;92.07;102407.00;5113207;28;20118;-60
2022/02/09 02:31:06;;;;;;;15.95;9.48;;;10.90;99.90;;;11.05;92.43;102405.03;5053777;28;20051;-60
2022/02/09 02:34:21;;;;;;;17.40;10.70;;;10.80;99.90;;;11.08;92.77;102400.69;5113293;28;20093;-60
2022/02/09 02:37:06;;;;;;;17.35;9.73;;;10.80;99.90;;;11.05;92.53;102394.44;5112986;28;20485;-60
2022/02/09 02:59:26;;;;;;;11.50;8.55;;;10.90;99.90;;;11.10;92.17;102383.06;5117180;28;20126;-60
2022/02/09 03:13:09;;;;;;;10.32;8.95;;;10.90;99.90;;;11.07;92.55;102364.47;5112541;27;1259401;-61
2022/02/09 03:15:44;;;;;;;11.90;8.15;;;10.80;99.90;;;11.07;93.23;102375.06;5130845;28;20104;-61
2022/02/09 03:21:08;;;;;;;11.68;8.40;;;10.80;99.90;;;11.06;93.25;102375.03;5122395;28;20063;-61
2022/02/09 03:23:45;;;;;;;11.13;8.82;;;10.80;99.90;;;11.01;93.27;102368.78;5130899;28;20043;-61
2022/02/09 03:43:01;;;;;;;18.40;9.80;;;10.80;99.90;;;10.99;93.83;102360.81;5130497;28;20117;-61
2022/02/09 03:48:34;;;;;;;13.10;9.50;;;10.80;99.90;;;11.03;93.57;102362.66;5130336;28;20051;-61
2022/02/09 03:54:00;;;;;;;10.45;9.27;;;10.80;99.90;;;10.96;93.72;102359.84;5123521;28;20055;-61
2022/02/09 03:56:41;;;;;;;13.85;9.57;;;10.70;99.90;;;10.93;93.79;102347.47;5130180;28;20051;-61
2022/02/09 03:59:13;;;;;;;12.05;10.10;;;10.70;99.90;;;11.01;93.61;102355.53;5130202;28;20063;-61
2022/02/09 04:01:44;;;;;;;12.55;10.38;;;10.70;99.90;;;11.04;93.58;102359.13;5130291;28;20458;-61
2022/02/09 04:04:13;;;;;;;13.68;11.55;;;10.70;99.90;;;10.93;93.93;102367.75;5130106;28;20047;-61
2022/02/09 04:06:42;;;;;;;12.13;10.90;;;10.70;99.90;;;10.83;94.02;102342.88;5111564;28;20073;-61
2022/02/09 04:09:14;;;;;;;13.73;10.75;;;10.60;99.90;;;10.86;94.36;102349.09;5129933;28;20047;-61
2022/02/09 04:11:47;;;;;;;12.52;10.05;;;10.60;99.90;;;10.80;94.30;102348.13;5129673;28;20445;-61
2022/02/09 04:14:25;;;;;;;11.95;10.32;;;10.60;99.90;;;10.81;94.24;102348.13;5111680;28;20046;-61
2022/02/09 04:17:06;;;;;;;13.18;10.85;;;10.60;99.90;;;10.70;94.22;102338.22;5111593;28;20441;-61
2022/02/09 04:19:43;;;;;;;15.00;10.48;;;10.60;99.90;;;10.80;94.16;102348.13;5129769;28;20047;-61
2022/02/09 04:22:41;;;;;;;10.68;9.50;;;10.60;99.90;;;10.78;94.34;102345.41;5129421;28;20381;-61
2022/02/09 04:36:38;;;;;;;12.82;11.52;;;10.50;99.90;;;10.51;94.71;102307.84;5056157;28;20048;-61
2022/02/09 04:39:13;;;;;;;15.02;10.95;;;10.50;99.90;;;10.78;94.74;102341.91;5100277;28;20493;-61
2022/02/09 04:41:57;;;;;;;14.63;11.02;;;10.50;99.90;;;10.76;94.64;102331.25;5115730;28;20471;-61
2022/02/09 04:44:50;;;;;;;14.73;11.75;;;10.60;99.90;;;10.16;94.54;102219.06;5115836;28;20048;-61
2022/02/09 04:47:29;;;;;;;16.98;11.32;;;10.60;99.90;;;10.76;94.62;102333.03;5115644;28;20627;-61
2022/02/09 04:50:07;;;;;;;15.85;11.55;;;10.50;99.90;;;10.62;94.51;102297.50;5115567;28;20043;-61
2022/02/09 04:52:53;;;;;;;12.40;11.18;;;10.60;99.90;;;10.82;94.30;102319.88;5115343;28;20047;-61
2022/02/09 04:58:14;;;;;;;14.85;10.43;;;10.50;99.90;;;10.82;94.43;102339.31;5101698;28;20059;-61
2022/02/09 05:00:51;;;;;;;13.77;9.98;;;10.60;99.90;;;10.76;94.53;102331.25;5115637;28;20040;-61
2022/02/09 05:03:44;;;;;;;14.60;10.35;;;10.50;99.90;;;10.79;94.58;102326.03;5115215;28;20511;-61
2022/02/09 05:17:58;;;;;;;14.10;9.75;;;10.50;99.90;;;10.69;95.36;102334.66;5102726;28;20075;-61
2022/02/09 05:26:07;;;;;;;11.68;10.13;;;10.50;99.90;;;10.50;95.26;102284.03;5109592;28;20055;-61
2022/02/09 05:28:37;;;;;;;12.38;10.02;;;10.50;99.90;;;10.72;94.73;102323.25;5115313;28;20044;-61
2022/02/09 05:31:07;;;;;;;14.68;10.55;;;10.50;99.90;;;10.59;94.78;102308.00;5114836;28;20039;-61
2022/02/09 05:33:38;;;;;;;15.65;9.90;;;10.50;99.90;;;10.68;94.45;102309.06;5114737;28;20046;-61
2022/02/09 05:36:07;;;;;;;15.43;9.95;;;10.50;99.90;;;10.71;94.80;102318.81;5095255;28;20063;-61
2022/02/09 05:38:37;;;;;;;12.93;9.13;;;10.50;99.90;;;10.70;94.77;102335.56;5114491;28;20138;-61
2022/02/09 05:41:05;;;;;;;12.87;9.67;;;10.50;99.90;;;10.64;94.86;102333.72;5114503;28;20039;-61
2022/02/09 05:43:35;;;;;;;13.52;10.00;;;10.40;99.90;;;10.66;94.90;102332.00;5114587;28;20130;-61
2022/02/09 05:46:55;;;;;;;11.23;9.10;;;10.40;99.90;;;10.63;95.04;102328.38;5114358;28;20043;-61
2022/02/09 05:49:33;;;;;;;11.13;10.02;;;10.40;99.90;;;10.64;95.25;102339.00;5114215;28;20071;-61
2022/02/09 05:52:05;;;;;;;13.45;10.27;;;10.40;99.90;;;10.55;95.38;102327.34;5114211;28;20105;-61
2022/02/09 05:54:58;;;;;;;14.02;10.73;;;10.30;99.90;;;10.53;95.06;102324.66;5114359;28;20043;-61
2022/02/09 05:57:42;;;;;;;15.45;11.32;;;10.30;99.90;;;10.54;95.40;102337.03;5114132;28;20035;-61
2022/02/09 06:00:13;;;;;;;13.18;10.55;;;10.30;99.90;;;10.52;95.34;102322.88;5114082;28;20085;-61
2022/02/09 06:02:44;;;;;;;13.48;10.85;;;10.30;99.90;;;10.56;95.72;102324.72;5114109;28;20576;-61
2022/02/09 06:05:13;;;;;;;12.75;9.50;;;10.30;99.90;;;10.54;95.85;102317.63;5095719;28;20097;-61
2022/02/09 06:07:42;;;;;;;16.42;11.38;;;10.30;99.90;;;10.52;96.23;102328.19;5114140;28;20074;-61
2022/02/09 06:10:17;;;;;;;13.35;10.88;;;10.30;99.90;;;10.51;96.20;102326.38;5113824;28;20480;-61
2022/02/09 06:12:51;;;;;;;12.82;10.00;;;10.30;99.90;;;10.49;96.52;102316.66;5113676;28;20485;-61
2022/02/09 06:20:54;;;;;;;12.18;10.05;;;10.30;99.90;;;10.57;96.17;102323.84;5113768;28;20047;-61
2022/02/09 06:23:22;;;;;;;10.20;9.13;;;10.30;99.90;;;10.38;96.18;102295.28;5113739;28;20453;-60
2022/02/09 06:25:52;;;;;;;14.60;9.63;;;10.30;99.90;;;10.58;96.13;102324.75;5113560;28;20548;-61
2022/02/09 06:28:20;;;;;;;12.53;10.43;;;10.30;99.90;;;10.52;96.47;102330.81;5113601;28;20496;-61
2022/02/09 06:30:48;;;;;;;15.90;11.05;;;10.30;99.90;;;10.58;96.67;102316.81;5113387;28;20067;-61
2022/02/09 06:33:17;;;;;;;12.93;10.13;;;10.30;99.90;;;10.58;96.60;102314.16;5113383;28;20040;-61
2022/02/09 06:35:47;;;;;;;15.80;9.50;;;10.40;99.90;;;10.62;96.53;102330.13;5113821;28;20040;-61
2022/02/09 06:38:17;;;;;;;12.60;9.13;;;10.40;99.90;;;10.68;96.06;102319.63;5113621;28;20123;-61
2022/02/09 06:40:46;;;;;;;12.90;9.63;;;10.40;99.90;;;10.66;96.13;102333.72;5113412;28;20043;-61
2022/02/09 06:43:16;;;;;;;10.73;9.20;;;10.40;99.90;;;10.68;96.20;102326.72;5094832;28;20321;-61
2022/02/09 06:45:44;;;;;;;11.43;9.13;;;10.40;99.90;;;10.61;96.67;102322.16;5113047;28;20051;-61
2022/02/09 06:48:13;;;;;;;10.85;8.65;;;10.40;99.90;;;10.48;96.12;102285.75;5113667;28;20296;-61
2022/02/09 06:50:46;;;;;;;11.88;9.32;;;10.40;99.90;;;10.65;96.47;102319.59;5113179;28;20488;-61
2022/02/09 06:53:28;;;;;;;12.27;9.68;;;10.40;99.90;;;10.58;96.06;102295.66;5113134;28;20071;-61
2022/02/09 06:55:59;;;;;;;11.57;9.98;;;10.40;99.90;;;10.41;96.04;102282.13;5113108;28;20493;-61
2022/02/09 06:58:56;;;;;;;13.85;9.75;;;10.40;99.90;;;10.57;96.00;102318.56;5094777;28;20565;-61
2022/02/09 07:01:24;;;;;;;13.38;10.10;;;10.40;99.90;;;10.57;96.21;102315.00;5112945;28;20050;-61
2022/02/09 07:03:53;;;;;;;15.38;11.35;;;10.30;99.90;;;10.58;96.34;102306.22;5113018;28;20040;-61
2022/02/09 07:06:21;;;;;;;16.23;11.85;;;10.30;99.90;;;10.53;96.36;102307.91;5112859;28;20039;-61
2022/02/09 07:08:49;;;;;;;18.38;13.65;;;10.30;99.90;;;10.48;96.47;102310.47;5112902;28;20396;-61
2022/02/09 07:11:18;;;;;;;17.40;13.23;;;10.30;99.90;;;10.49;96.97;102321.94;5112905;28;20040;-61
2022/02/09 07:13:47;;;;;;;18.20;13.80;;;10.20;99.90;;;10.47;96.98;102297.22;5112651;28;20051;-61
2022/02/09 07:16:17;;;;;;;20.27;13.83;;;10.20;99.90;;;10.50;97.16;102310.47;5094610;28;20516;-61
2022/02/09 07:18:47;;;;;;;19.65;13.65;;;10.30;99.90;;;10.45;97.01;102294.50;5112794;28;20454;-62
2022/02/09 07:21:17;;;;;;;22.13;14.80;;;10.20;99.90;;;10.39;97.51;102312.94;5112853;28;20044;-62
2022/02/09 07:23:49;;;;;;;17.52;13.90;;;10.20;99.90;;;10.49;97.12;102301.63;5112744;28;20450;-62
2022/02/09 07:26:21;;;;;;;15.57;13.80;;;10.20;99.90;;;10.52;96.99;102319.34;5112956;28;20046;-63
2022/02/09 07:28:50;;;;;;;20.58;14.35;;;10.30;99.90;;;10.46;96.75;102317.47;5112870;28;20046;-62
2022/02/09 07:31:20;;;;;;;16.98;14.48;;;10.20;99.90;;;10.45;96.92;102305.09;5094596;28;20150;-62
2022/02/09 07:33:49;;;;;;;17.48;14.25;;;10.20;99.90;;;10.48;97.04;102304.25;5113062;28;20396;-61
2022/02/09 07:36:18;;;;;;;21.60;15.57;;;10.20;99.90;;;10.42;96.70;102320.00;5112946;28;20058;-61
2022/02/09 07:38:46;;;;;;;21.27;14.52;;;10.20;99.90;;;10.40;97.12;102320.00;5112781;28;20467;-62
2022/02/09 07:41:15;;;;;;;16.02;13.43;;;10.20;99.90;;;10.44;96.79;102334.16;5112655;28;20067;-61
2022/02/09 07:43:49;;;;;;;18.58;13.88;;;10.20;99.90;;;10.42;96.73;102312.09;5112573;28;20048;-62
2022/02/09 07:46:30;;;;;;;15.95;13.35;;;10.20;99.90;;;10.46;97.27;102319.22;5112632;28;20068;-61
2022/02/09 07:49:05;;;;;;;14.98;12.88;;;10.20;99.90;;;10.51;96.84;102314.94;5112613;28;20044;-61
2022/02/09 07:51:42;;;;;;;14.77;12.95;;;10.30;99.90;;;10.46;96.78;102312.19;5112542;28;20530;-62
2022/02/09 07:54:13;;;;;;;16.33;12.93;;;10.20;99.90;;;10.36;96.55;102309.31;5112321;28;20477;-61
2022/02/09 07:56:49;;;;;;;16.27;13.00;;;10.20;99.90;;;10.38;96.95;102303.19;5112501;28;20043;-64
2022/02/09 07:59:28;;;;;;;15.68;12.55;;;10.10;99.90;;;10.50;96.81;102315.78;5115348;28;20085;-63
2022/02/09 08:02:00;;;;;;;13.80;12.25;;;10.20;99.90;;;9.70;96.27;102168.75;5116395;28;20814;-62
2022/02/09 08:04:29;;;;;;;13.70;11.47;;;10.20;99.90;;;10.46;96.52;102308.63;5116416;28;20043;-63
2022/02/09 08:06:57;;;;;;;13.90;12.43;;;10.20;99.90;;;10.41;96.51;102313.88;5116216;28;20043;-63
2022/02/09 08:09:31;;;;;;;14.35;12.48;;;10.20;99.90;;;10.47;96.50;102313.09;5116268;28;20069;-62
2022/02/09 08:12:25;;;;;;;14.40;12.90;;;10.20;99.90;;;10.47;96.26;102313.09;5116274;28;20051;-66
2022/02/09 08:29:18;;;;;;;15.10;12.55;;;10.10;99.90;;;10.44;96.57;102318.28;5108273;28;20070;-60
2022/02/09 08:32:26;;;;;;;18.50;13.25;;;10.20;99.90;;;10.45;96.09;102298.94;5115783;28;20097;-60
2022/02/09 08:34:40;;;;;;;15.75;13.90;;;10.20;99.90;;;10.46;95.81;102308.63;5115490;28;20044;-61
2022/02/09 08:37:09;;;;;;;17.67;13.63;;;10.20;99.90;;;10.46;96.04;102316.56;5115771;28;20044;-61
2022/02/09 08:39:38;;;;;;;19.38;14.63;;;10.20;99.90;;;10.30;96.10;102304.81;5115535;28;20404;-62
2022/02/09 08:42:07;;;;;;;17.27;13.68;;;10.20;99.90;;;10.42;96.51;102304.16;5115444;28;20043;-61
2022/02/09 08:44:36;;;;;;;19.40;15.15;;;10.20;99.90;;;10.40;96.27;102319.09;5115457;28;20120;-62
2022/02/09 08:47:05;;;;;;;18.65;15.02;;;10.20;99.90;;;10.43;96.27;102313.88;5115610;28;20086;-62
2022/02/09 08:49:34;;;;;;;17.90;15.20;;;10.20;99.90;;;10.54;95.91;102307.03;5115513;28;20042;-62
2022/02/09 08:52:05;;;;;;;21.85;15.45;;;10.20;99.90;;;10.53;96.08;102302.63;5115423;28;20055;-62
2022/02/09 08:54:34;;;;;;;18.80;14.55;;;10.30;99.90;;;10.61;95.47;102315.09;5115147;28;20047;-62
2022/02/09 08:57:10;;;;;;;19.27;14.60;;;10.40;99.90;;;10.61;95.50;102311.56;5115750;28;20130;-60
2022/02/09 08:59:39;;;;;;;22.45;15.43;;;10.40;99.90;;;10.64;95.50;102309.91;5115355;28;20059;-62
2022/02/09 09:02:12;;;;;;;18.23;14.50;;;10.40;99.90;;;10.59;95.33;102305.34;5115098;28;20041;-62
2022/02/09 09:04:46;;;;;;;20.42;14.93;;;10.40;99.90;;;10.61;95.22;102307.16;5115194;28;20044;-61
2022/02/09 09:07:21;;;;;;;20.67;15.07;;;10.40;99.90;;;10.75;95.02;102310.97;5115004;28;20043;-61
2022/02/09 09:10:01;;;;;;;18.80;14.60;;;10.50;99.90;;;10.80;94.88;102311.06;5115000;28;20092;-61
2022/02/09 09:41:00;;;;;;;18.73;14.07;;;10.80;99.90;;;11.06;92.42;102312.38;5114443;28;20077;-61
2022/02/09 10:02:57;;;;;;;20.48;14.32;;;11.00;99.90;;;11.30;90.99;102325.16;5112642;28;20055;-62
2022/02/09 10:05:52;;;;;;;18.60;14.05;;;11.00;99.90;;;11.31;90.81;102329.56;5113960;28;20454;-62
2022/02/09 10:30:55;;;;;;;19.85;15.45;;;11.10;99.90;;;11.37;90.59;102346.44;5113286;28;20047;-61
2022/02/09 10:31:51;;;;;;;20.13;15.77;;;11.40;99.90;;;11.74;89.57;102348.84;5113742;28;20051;-62
2022/02/09 10:34:24;;;;;;;19.27;14.70;;;11.50;99.90;;;11.71;89.07;102348.78;5113381;28;20048;-62
2022/02/09 10:36:57;;;;;;;20.38;14.48;;;11.50;99.90;;;11.56;89.20;102323.78;5113463;28;20035;-62
2022/02/09 10:39:33;;;;;;;22.05;15.32;;;11.50;99.90;;;11.72;88.79;102350.56;5113447;28;20450;-62
2022/02/09 10:42:13;;;;;;;22.13;14.90;;;11.50;99.90;;;11.61;88.77;102352.13;5113343;28;20044;-62
2022/02/09 10:44:47;;;;;;;21.33;16.00;;;11.40;99.90;;;11.63;88.83;102362.78;5113375;28;20478;-62
2022/02/09 10:47:27;;;;;;;23.25;16.35;;;11.40;99.90;;;11.49;88.74;102351.97;5113111;28;20561;-62
2022/02/09 10:50:13;;;;;;;23.83;15.18;;;11.30;99.90;;;11.33;89.32;102355.22;5113307;28;20066;-62
2022/02/09 10:52:47;;;;;;;20.67;16.27;;;11.10;99.90;;;11.28;89.71;102350.72;5113235;28;20052;-62
2022/02/09 10:55:34;;;;;;;20.42;15.30;;;11.10;99.90;;;11.13;90.11;102361.94;5113093;28;20035;-62
2022/02/09 10:58:05;;;;;;;21.65;15.70;;;10.90;99.90;;;11.21;90.37;102355.00;5113279;28;20073;-62
2022/02/09 11:00:34;;;;;;;22.77;16.35;;;10.90;99.90;;;11.20;90.31;102357.63;5113596;28;20048;-65
2022/02/09 11:03:04;;;;;;;24.33;15.43;;;10.90;99.90;;;11.17;89.95;102349.66;5112968;28;20043;-63
2022/02/09 11:05:33;;;;;;;20.77;15.32;;;10.90;99.90;;;10.92;90.22;102334.22;5113327;28;20061;-64
2022/02/09 11:08:01;;;;;;;22.30;16.05;;;10.80;99.90;;;11.14;90.42;102346.94;5112946;28;20464;-64
2022/02/09 11:10:29;;;;;;;25.50;17.30;;;10.90;99.90;;;10.93;90.64;102321.00;5112921;28;20069;-63
2022/02/09 11:12:59;;;;;;;22.55;16.58;;;10.90;99.90;;;10.98;90.51;102345.78;5112666;28;20142;-61
2022/02/09 11:15:31;;;;;;;22.85;17.40;;;10.90;99.90;;;11.08;90.57;102363.63;5112727;28;20105;-62
2022/02/09 11:17:59;;;;;;;23.67;15.05;;;10.90;99.90;;;11.03;90.55;102356.47;5113173;28;20378;-63
2022/02/09 11:20:31;;;;;;;22.20;16.48;;;10.80;99.90;;;11.06;90.79;102356.50;5112910;28;20378;-63
2022/02/09 11:23:00;;;;;;;21.75;15.30;;;10.80;99.90;;;11.07;90.56;102358.31;5112641;28;20116;-63
2022/02/09 11:25:31;;;;;;;21.85;15.35;;;10.80;99.90;;;11.16;90.66;102361.09;5112794;28;20472;-61
2022/02/09 11:28:34;;;;;;;21.63;15.45;;;10.90;99.90;;;11.21;90.47;102355.00;5112806;28;20046;-62
2022/02/09 11:31:11;;;;;;;23.63;15.43;;;11.00;99.90;;;11.22;90.31;102346.22;5070003;28;20108;-60
2022/02/09 11:34:03;;;;;;;21.63;14.10;;;11.00;99.90;;;11.27;90.26;102355.13;5114653;28;20100;-61
2022/02/09 11:36:38;;;;;;;22.30;14.10;;;11.10;99.90;;;11.22;89.88;102370.06;5116702;28;20400;-62
2022/02/09 11:39:14;;;;;;;21.92;14.68;;;11.00;99.90;;;11.24;89.98;102346.22;5116749;28;20096;-62
2022/02/09 11:41:55;;;;;;;19.50;13.98;;;11.00;99.90;;;11.21;89.92;102338.22;5116722;28;20039;-64
2022/02/09 11:44:51;;;;;;;18.05;13.70;;;11.00;99.90;;;11.00;90.02;102316.69;5116666;28;20031;-64
2022/02/09 11:47:55;;;;;;;22.48;13.68;;;10.90;99.90;;;11.27;90.29;102344.50;5116642;28;20046;-62
2022/02/09 11:50:55;;;;;;;20.75;12.68;;;11.00;99.90;;;11.28;89.82;102341.03;5116619;28;20063;-62
2022/02/09 11:56:57;;;;;;;16.95;13.02;;;11.20;99.90;;;11.37;89.17;102333.22;5116475;28;20100;-62
2022/02/09 12:08:52;;;;;;;18.48;12.90;;;11.30;99.90;;;11.41;88.94;102332.41;5116654;28;20071;-62
2022/02/09 12:11:58;;;;;;;18.98;12.95;;;11.20;99.90;;;11.45;89.15;102328.94;5116542;28;20116;-63
2022/02/09 12:15:10;;;;;;;19.08;13.75;;;11.20;99.90;;;11.44;89.01;102320.97;5116317;28;20036;-63
2022/02/09 12:17:50;;;;;;;21.23;12.85;;;11.20;99.90;;;11.40;89.62;102343.84;5116160;28;20089;-63
2022/02/09 12:20:21;;;;;;;20.25;13.77;;;11.20;99.90;;;11.31;89.36;102292.47;5116019;28;20047;-62
2022/02/09 12:23:05;;;;;;;18.67;13.73;;;11.30;99.90;;;11.40;89.48;102304.09;5097799;28;20112;-62
2022/02/09 12:25:45;;;;;;;22.75;14.60;;;11.20;99.90;;;11.33;90.10;102304.88;5116281;28;20500;-62
2022/02/09 12:28:15;;;;;;;22.70;13.95;;;11.20;99.90;;;11.49;89.96;102306.91;5116364;28;20096;-62
2022/02/09 12:30:44;;;;;;;21.73;13.98;;;11.20;99.90;;;11.54;90.10;102312.25;5116198;28;20055;-62
2022/02/09 12:33:20;;;;;;;19.60;13.40;;;11.20;99.90;;;11.56;89.69;102300.81;5115735;28;20439;-63
2022/02/09 12:35:48;;;;;;;20.85;12.82;;;11.30;99.90;;;11.55;89.06;102303.44;5115571;28;20043;-63
2022/02/09 12:38:28;;;;;;;23.80;12.90;;;11.30;99.90;;;11.43;88.84;102269.72;5116215;28;20047;-63
2022/02/09 12:41:25;;;;;;;21.50;12.98;;;11.30;99.90;;;11.64;88.94;102306.22;5115817;28;20097;-63
2022/02/09 12:43:59;;;;;;;18.55;12.20;;;11.40;99.90;;;11.71;88.72;102309.00;5112963;28;20561;-63
2022/02/09 12:46:32;;;;;;;18.33;11.82;;;11.40;99.90;;;11.66;88.67;102310.72;5115575;28;20075;-63
2022/02/09 12:49:06;;;;;;;19.48;12.48;;;11.40;99.90;;;11.74;88.51;102309.06;5115575;28;20110;-63
2022/02/09 12:51:36;;;;;;;21.00;12.52;;;11.50;99.90;;;11.64;88.46;102298.28;5115625;28;20100;-63
2022/02/09 12:54:09;;;;;;;21.70;13.25;;;11.50;99.90;;;11.85;88.52;102317.16;5115556;28;20516;-63
2022/02/09 12:56:43;;;;;;;20.50;12.80;;;11.50;99.90;;;11.81;88.05;102302.06;5115249;28;20089;-63
2022/02/09 12:59:15;;;;;;;20.35;12.63;;;11.60;99.90;;;11.93;87.88;102306.66;5115458;28;20408;-63
2022/02/09 13:01:48;;;;;;;18.55;12.57;;;11.60;99.90;;;11.91;87.54;102309.28;5115194;28;20490;-65
2022/02/09 13:04:30;;;;;;;19.45;12.30;;;11.60;99.90;;;12.00;87.11;102320.00;5114869;28;20047;-62
2022/02/09 13:06:59;;;;;;;17.80;11.55;;;11.70;99.90;;;12.09;87.20;102313.94;5115166;28;20054;-62
2022/02/09 13:09:28;;;;;;;17.45;12.25;;;11.80;99.90;;;12.03;87.31;102303.25;5115059;28;20061;-63
2022/02/09 13:11:59;;;;;;;16.77;11.95;;;11.80;99.90;;;12.09;86.86;102300.69;5114779;28;20104;-65
2022/02/09 13:14:33;;;;;;;21.85;12.68;;;11.90;99.90;;;12.20;86.88;102301.69;5114789;28;20104;-62
2022/02/09 13:17:28;;;;;;;16.92;11.25;;;11.90;99.90;;;12.06;86.63;102298.00;5096571;28;20043;-61
2022/02/09 13:52:36;;;;;;;16.40;12.65;;;11.60;99.90;;;11.84;87.67;102280.03;5069547;28;20044;-63
2022/02/09 14:04:40;;;;;;;24.20;14.30;;;11.50;99.90;;;11.73;88.38;102287.81;5069269;28;20115;-62
2022/02/09 14:07:39;;;;;;;21.05;12.88;;;11.40;99.90;;;11.71;88.28;102282.50;5068838;28;20052;-62
2022/02/09 14:13:15;;;;;;;17.90;11.30;;;11.40;99.90;;;11.72;88.13;102276.34;5044491;28;20122;-62
2022/02/09 14:16:22;;;;;;;26.05;13.02;;;11.40;99.90;;;11.61;88.25;102277.91;5067665;28;20075;-62
2022/02/09 14:19:02;;;;;;;22.15;12.00;;;11.40;99.90;;;11.64;88.09;102264.72;5067601;28;20452;-61
2022/02/09 14:52:29;;;;;;;20.48;12.80;;;11.20;99.90;;;11.45;88.83;102294.47;5053882;28;20494;-62
2022/02/09 14:55:03;;;;;;;23.55;12.90;;;11.20;99.90;;;11.52;89.03;102291.03;5053552;28;20057;-62
2022/02/09 14:57:37;;;;;;;22.00;13.43;;;11.20;99.90;;;11.37;89.11;102288.16;5055149;28;20053;-62
2022/02/09 15:00:12;;;;;;;23.08;13.45;;;11.20;99.90;;;11.52;89.21;102304.28;5055169;28;20098;-62
2022/02/09 15:03:02;;;;;;;23.65;14.48;;;11.30;99.90;;;11.46;89.37;102296.25;5054732;28;20047;-62
2022/02/09 15:08:26;;;;;;;25.58;13.65;;;11.30;99.90;;;11.55;88.85;102314.94;5054673;28;20449;-62
2022/02/09 15:11:06;;;;;;;24.98;14.85;;;11.30;99.90;;;11.56;88.65;102308.78;5054739;28;20088;-62
2022/02/09 15:13:43;;;;;;;23.73;13.77;;;11.30;99.90;;;11.60;88.59;102310.59;5054765;28;20490;-63
2022/02/09 15:16:20;;;;;;;24.20;15.05;;;11.30;99.90;;;11.53;88.55;102314.03;5054852;28;20395;-65
2022/02/09 15:19:14;;;;;;;25.77;14.73;;;11.30;99.90;;;11.58;88.54;102311.44;5054842;28;20077;-62
2022/02/09 15:22:02;;;;;;;23.13;13.05;;;11.30;99.90;;;11.46;88.91;102304.19;5053346;28;20053;-62
2022/02/09 15:24:42;;;;;;;25.88;14.70;;;11.20;99.90;;;11.43;89.64;102309.47;5069867;28;20048;-61
2022/02/09 15:27:15;;;;;;;28.50;15.07;;;11.10;99.90;;;11.42;90.45;102309.44;5054057;28;20072;-61
2022/02/09 15:29:45;;;;;;;31.88;15.20;;;11.10;99.90;;;11.56;90.36;102313.16;5054364;28;20041;-62
2022/02/09 15:32:24;;;;;;;23.23;13.73;;;11.20;99.90;;;11.45;90.39;102309.47;5054192;28;20091;-61
2022/02/09 15:34:57;;;;;;;25.90;14.00;;;11.20;99.90;;;11.34;90.64;102297.84;5054628;28;20045;-61
2022/02/09 15:37:34;;;;;;;24.98;14.32;;;11.10;99.90;;;11.36;91.21;102304.06;5054084;28;20505;-60
2022/02/09 15:40:10;;;;;;;23.27;14.15;;;11.10;99.90;;;11.20;91.48;102308.22;5054106;28;20076;-61
2022/02/09 15:56:24;;;;;;;26.95;14.00;;;10.90;99.90;;;11.12;93.80;102293.06;5053850;28;20048;-60
2022/02/09 15:59:22;;;;;;;27.70;13.43;;;10.90;99.90;;;11.29;93.76;102302.16;5053631;28;20056;-60
2022/02/09 16:10:33;;;;;;;33.72;15.93;;;11.10;99.90;;;11.43;93.12;102292.66;5053629;28;20041;-61
2022/02/09 16:24:13;;;;;;;30.15;14.60;;;11.10;99.90;;;11.35;92.42;102281.97;5053453;28;20041;-62
2022/02/09 16:46:23;;;;;;;32.40;13.77;;;11.20;99.90;;;11.44;91.88;102265.31;5052936;28;20048;-62
2022/02/09 16:49:01;;;;;;;24.85;13.68;;;11.20;99.90;;;11.56;91.82;102268.13;5052867;28;20122;-62
2022/02/09 16:51:38;;;;;;;24.65;13.68;;;11.20;99.90;;;11.60;91.46;102268.19;5052915;28;20072;-63
2022/02/09 16:54:22;;;;;;;31.55;13.48;;;11.30;99.90;;;11.55;91.66;102272.56;5052921;28;20094;-62
2022/02/09 16:57:00;;;;;;;26.92;13.23;;;11.20;99.90;;;11.65;91.40;102274.47;5053223;28;20057;-61
2022/02/09 17:19:04;;;;;;;24.73;11.95;;;11.50;99.90;;;11.80;90.26;102271.16;5052338;28;20043;-63
2022/02/09 17:21:33;;;;;;;23.00;10.90;;;11.50;99.90;;;11.84;89.86;102275.63;5052385;28;20053;-61
2022/02/09 17:24:04;;;;;;;22.80;11.55;;;11.50;99.90;;;11.86;89.74;102273.88;5052669;28;20033;-62
2022/02/09 17:26:33;;;;;;;24.85;12.23;;;11.50;99.90;;;11.94;89.34;102271.31;5052145;28;20115;-62
2022/02/09 17:29:03;;;;;;;23.55;10.75;;;11.60;99.90;;;11.92;89.00;102271.31;5052237;28;20075;-62
2022/02/09 17:31:46;;;;;;;24.40;12.93;;;11.60;99.90;;;11.90;88.90;102264.19;5052495;28;20041;-62
2022/02/09 17:54:24;;;;;;;25.60;11.15;;;11.60;99.90;;;11.78;88.35;102255.22;5039776;28;20061;-61
2022/02/09 17:56:54;;;;;;;24.40;11.52;;;11.50;99.90;;;11.63;88.31;102227.59;5052125;28;20037;-61
2022/02/09 17:59:24;;;;;;;28.00;10.93;;;11.50;99.90;;;11.84;88.43;102261.47;5052096;28;20045;-62
2022/02/09 18:01:53;;;;;;;27.50;12.00;;;11.50;99.90;;;11.65;88.36;102221.47;5052591;28;20111;-63
2022/02/09 18:04:23;;;;;;;31.15;12.80;;;11.50;99.90;;;11.86;88.44;102251.78;5051995;28;20127;-61
2022/02/09 18:06:58;;;;;;;23.08;11.27;;;11.50;99.90;;;11.85;88.18;102263.22;5051937;28;20049;-61